Denver City, Texas
Current Conditions -  °F | °C
As of 1:15 AM on Sunday 26 Oct 2014 (Local Time) from KGNC Reporting Station
Clear Clear  
Wind Chill: 61°   Ceiling: Unl
Heat Index: 61°   Visibility: 10mi
Dew Point: 52°   Wind: 8mph
Humidity: 72%   Direction: 190°S
Pressure: 30.1"   Gusts: NA
Location:  32.96°N, 102.82°W
Report Text: KGNC 260615Z AUTO 19007KT 10SM CLR 16/11 A3010 RMK AO2 T01630113
Loading
Personal Weather Stations






























Interactive Weather Map New forecast layout! Learn more

10-Day Weather Forecast

Advertisements
Track Severe Weather on mobile